Time,TemperatureF,DewpointF,PressureIn,WindDirection,WindDirectionDegrees,WindSpeedMPH,WindSpeedGustMPH,Humidity,HourlyPrecipIn,Conditions,Clouds,dailyrainin,SoftwareType,DateUTC
2013-08-12 00:01:00,69.3,68.0,29.95,SE,130,0.0,0.0,95,0.00,,,0.00,weatherlink.com 1.10,2013-08-12 04:01:00,
2013-08-12 00:16:00,69.0,68.0,29.95,SE,130,0.0,0.0,96,0.00,,,0.00,weatherlink.com 1.10,2013-08-12 04:16:00,
2013-08-12 00:31:00,68.8,68.0,29.96,SE,130,0.0,0.0,96,0.00,,,0.00,weatherlink.com 1.10,2013-08-12 04:31:00,
2013-08-12 00:46:00,68.7,68.0,29.96,SE,130,0.0,0.0,97,0.00,,,0.00,weatherlink.com 1.10,2013-08-12 04:46:00,
2013-08-12 01:01:00,68.6,68.0,29.96,SE,130,0.0,0.0,97,0.00,,,0.00,weatherlink.com 1.10,2013-08-12 05:01:00,
2013-08-12 01:16:00,68.6,68.0,29.96,SE,130,0.0,0.0,97,0.00,,,0.00,weatherlink.com 1.10,2013-08-12 05:16:00,
2013-08-12 01:31:00,68.6,68.0,29.96,SE,128,0.0,0.0,97,0.00,,,0.00,weatherlink.com 1.10,2013-08-12 05:31:00,
2013-08-12 01:46:00,68.6,68.0,29.96,East,85,0.0,0.0,97,0.00,,,0.00,weatherlink.com 1.10,2013-08-12 05:46:00,
2013-08-12 02:01:00,68.6,68.0,29.96,East,85,0.0,0.0,97,0.00,,,0.00,weatherlink.com 1.10,2013-08-12 06:01:00,
2013-08-12 02:16:00,68.4,68.0,29.96,NE,52,0.0,1.0,97,0.00,,,0.00,weatherlink.com 1.10,2013-08-12 06:16:00,
2013-08-12 02:31:00,68.3,68.0,29.95,NE,52,0.0,0.0,97,0.00,,,0.00,weatherlink.com 1.10,2013-08-12 06:31:00,
2013-08-12 02:46:00,67.9,67.0,29.95,NE,52,0.0,0.0,97,0.00,,,0.00,weatherlink.com 1.10,2013-08-12 06:46:00,
2013-08-12 03:01:00,67.6,67.0,29.95,NE,52,0.0,0.0,97,0.00,,,0.00,weatherlink.com 1.10,2013-08-12 07:01:00,
2013-08-12 03:17:00,67.4,67.0,29.95,NE,52,0.0,0.0,97,0.00,,,0.00,weatherlink.com 1.10,2013-08-12 07:17:00,
2013-08-12 03:32:00,67.2,67.0,29.95,NE,52,0.0,0.0,98,0.00,,,0.00,weatherlink.com 1.10,2013-08-12 07:32:00,
2013-08-12 03:47:00,66.8,66.0,29.95,NE,52,0.0,0.0,97,0.00,,,0.00,weatherlink.com 1.10,2013-08-12 07:47:00,
2013-08-12 04:02:00,66.6,66.0,29.95,NE,52,0.0,0.0,98,0.00,,,0.00,weatherlink.com 1.10,2013-08-12 08:02:00,
2013-08-12 04:17:00,66.3,66.0,29.95,NE,52,0.0,0.0,97,0.00,,,0.00,weatherlink.com 1.10,2013-08-12 08:17:00,
2013-08-12 04:32:00,66.1,66.0,29.95,NE,52,0.0,0.0,98,0.00,,,0.00,weatherlink.com 1.10,2013-08-12 08:32:00,
2013-08-12 04:47:00,66.0,66.0,29.95,NE,52,0.0,0.0,98,0.00,,,0.00,weatherlink.com 1.10,2013-08-12 08:47:00,
2013-08-12 05:02:00,65.9,65.0,29.95,NE,52,0.0,0.0,98,0.00,,,0.00,weatherlink.com 1.10,2013-08-12 09:02:00,
2013-08-12 05:17:00,65.8,65.0,29.95,NE,52,0.0,0.0,98,0.00,,,0.00,weatherlink.com 1.10,2013-08-12 09:17:00,
2013-08-12 05:32:00,65.7,65.0,29.95,NE,52,0.0,0.0,98,0.00,,,0.00,weatherlink.com 1.10,2013-08-12 09:32:00,
2013-08-12 05:47:00,66.0,66.0,29.94,NE,52,0.0,0.0,98,0.00,,,0.00,weatherlink.com 1.10,2013-08-12 09:47:00,
2013-08-12 06:02:00,65.9,65.0,29.95,North,2,0.0,0.0,98,0.00,,,0.00,weatherlink.com 1.10,2013-08-12 10:02:00,
2013-08-12 06:17:00,65.7,65.0,29.95,North,2,0.0,0.0,98,0.00,,,0.00,weatherlink.com 1.10,2013-08-12 10:17:00,
2013-08-12 06:32:00,65.6,65.0,29.95,North,2,0.0,0.0,98,0.00,,,0.00,weatherlink.com 1.10,2013-08-12 10:32:00,
2013-08-12 06:47:00,65.6,65.0,29.95,North,2,0.0,0.0,98,0.00,,,0.00,weatherlink.com 1.10,2013-08-12 10:47:00,
2013-08-12 07:02:00,65.9,66.0,29.96,North,2,0.0,0.0,99,0.00,,,0.00,weatherlink.com 1.10,2013-08-12 11:02:00,
2013-08-12 07:17:00,66.8,67.0,29.97,NE,50,0.0,2.0,99,0.00,,,0.00,weatherlink.com 1.10,2013-08-12 11:17:00,
2013-08-12 07:32:00,67.9,68.0,29.96,North,349,1.0,4.0,99,0.00,,,0.00,weatherlink.com 1.10,2013-08-12 11:32:00,
2013-08-12 07:47:00,69.0,69.0,29.96,North,356,0.0,2.0,99,0.00,,,0.00,weatherlink.com 1.10,2013-08-12 11:47:00,
2013-08-12 08:02:00,70.7,70.0,29.97,North,356,0.0,2.0,97,0.00,,,0.00,weatherlink.com 1.10,2013-08-12 12:02:00,
2013-08-12 08:17:00,72.0,71.0,29.96,North,356,0.0,3.0,95,0.00,,,0.00,weatherlink.com 1.10,2013-08-12 12:17:00,
2013-08-12 08:32:00,74.2,72.0,29.96,North,356,0.0,2.0,92,0.00,,,0.00,weatherlink.com 1.10,2013-08-12 12:32:00,
2013-08-12 08:47:00,76.2,70.0,29.96,NW,323,3.0,4.0,81,0.00,,,0.00,weatherlink.com 1.10,2013-08-12 12:47:00,
2013-08-12 09:02:00,77.6,70.0,29.96,NW,305,4.0,7.0,77,0.00,,,0.00,weatherlink.com 1.10,2013-08-12 13:02:00,
2013-08-12 09:17:00,77.8,70.0,29.96,NNW,333,1.0,8.0,77,0.00,,,0.00,weatherlink.com 1.10,2013-08-12 13:17:00,
2013-08-12 09:32:00,78.2,70.0,29.96,NNW,332,4.0,8.0,75,0.00,,,0.00,weatherlink.com 1.10,2013-08-12 13:32:00,
2013-08-12 09:47:00,78.1,69.0,29.96,NW,320,2.0,8.0,74,0.00,,,0.00,weatherlink.com 1.10,2013-08-12 13:47:00,
2013-08-12 10:02:00,78.5,70.0,29.96,North,356,2.0,13.0,74,0.00,,,0.00,weatherlink.com 1.10,2013-08-12 14:02:00,
2013-08-12 10:17:00,78.9,69.0,29.96,NW,324,7.0,11.0,72,0.00,,,0.00,weatherlink.com 1.10,2013-08-12 14:17:00,
2013-08-12 10:32:00,79.1,69.0,29.96,NW,323,5.0,10.0,71,0.00,,,0.00,weatherlink.com 1.10,2013-08-12 14:32:00,
2013-08-12 10:47:00,79.6,69.0,29.97,WNW,300,3.0,14.0,69,0.00,,,0.00,weatherlink.com 1.10,2013-08-12 14:47:00,
2013-08-12 11:02:00,80.6,69.0,29.97,NW,316,3.0,9.0,67,0.00,,,0.00,weatherlink.com 1.10,2013-08-12 15:02:00,
2013-08-12 11:17:00,80.2,69.0,29.96,WNW,298,6.0,7.0,68,0.00,,,0.00,weatherlink.com 1.10,2013-08-12 15:17:00,
2013-08-12 11:33:00,81.2,69.0,29.96,WNW,295,8.0,8.0,66,0.00,,,0.00,weatherlink.com 1.10,2013-08-12 15:33:00,
2013-08-12 11:48:00,80.9,68.0,29.96,NW,318,0.0,9.0,66,0.00,,,0.00,weatherlink.com 1.10,2013-08-12 15:48:00,
2013-08-12 12:03:00,81.4,67.0,29.96,North,350,7.0,8.0,62,0.00,,,0.00,weatherlink.com 1.10,2013-08-12 16:03:00,
2013-08-12 12:18:00,82.4,68.0,29.96,NW,318,3.0,7.0,61,0.00,,,0.00,weatherlink.com 1.10,2013-08-12 16:18:00,
2013-08-12 12:33:00,82.4,66.0,29.96,NNW,327,3.0,12.0,57,0.00,,,0.00,weatherlink.com 1.10,2013-08-12 16:33:00,
2013-08-12 12:48:00,82.8,68.0,29.95,NNW,333,4.0,9.0,61,0.00,,,0.00,weatherlink.com 1.10,2013-08-12 16:48:00,
2013-08-12 13:03:00,83.1,65.0,29.95,NNW,327,3.0,7.0,55,0.00,,,0.00,weatherlink.com 1.10,2013-08-12 17:03:00,
2013-08-12 13:18:00,83.4,66.0,29.95,North,360,5.0,10.0,55,0.00,,,0.00,weatherlink.com 1.10,2013-08-12 17:18:00,
2013-08-12 13:33:00,83.5,66.0,29.94,West,267,1.0,6.0,55,0.00,,,0.00,weatherlink.com 1.10,2013-08-12 17:33:00,
2013-08-12 13:48:00,84.4,67.0,29.94,North,349,2.0,7.0,57,0.00,,,0.00,weatherlink.com 1.10,2013-08-12 17:48:00,
2013-08-12 14:04:00,84.3,67.0,29.94,North,351,0.0,5.0,56,0.00,,,0.00,weatherlink.com 1.10,2013-08-12 18:04:00,
2013-08-12 14:18:00,85.3,66.0,29.93,ESE,105,1.0,6.0,53,0.00,,,0.00,weatherlink.com 1.10,2013-08-12 18:18:00,
2013-08-12 14:33:00,85.3,66.0,29.93,North,360,1.0,4.0,53,0.00,,,0.00,weatherlink.com 1.10,2013-08-12 18:33:00,
2013-08-12 15:03:00,86.0,66.0,29.92,NW,318,1.0,6.0,51,0.00,,,0.00,weatherlink.com 1.10,2013-08-12 19:03:00,
2013-08-12 15:18:00,86.0,68.0,29.92,SSW,210,1.0,6.0,56,0.00,,,0.00,weatherlink.com 1.10,2013-08-12 19:18:00,
2013-08-12 15:33:00,86.7,65.0,29.91,NNW,329,5.0,7.0,48,0.00,,,0.00,weatherlink.com 1.10,2013-08-12 19:33:00,
2013-08-12 15:48:00,87.0,65.0,29.91,NNE,25,3.0,8.0,48,0.00,,,0.00,weatherlink.com 1.10,2013-08-12 19:48:00,
2013-08-12 16:03:00,87.1,65.0,29.90,NNW,342,0.0,6.0,48,0.00,,,0.00,weatherlink.com 1.10,2013-08-12 20:03:00,
2013-08-12 16:18:00,87.8,66.0,29.89,NE,36,1.0,5.0,48,0.00,,,0.00,weatherlink.com 1.10,2013-08-12 20:18:00,
2013-08-12 16:33:00,86.6,66.0,29.89,NNW,343,1.0,7.0,50,0.00,,,0.00,weatherlink.com 1.10,2013-08-12 20:33:00,
2013-08-12 16:48:00,87.6,64.0,29.89,WNW,294,0.0,4.0,46,0.00,,,0.00,weatherlink.com 1.10,2013-08-12 20:48:00,
2013-08-12 17:03:00,87.7,66.0,29.89,NNE,26,2.0,4.0,49,0.00,,,0.00,weatherlink.com 1.10,2013-08-12 21:03:00,
2013-08-12 17:18:00,86.9,67.0,29.88,NNW,333,0.0,4.0,52,0.00,,,0.00,weatherlink.com 1.10,2013-08-12 21:18:00,
2013-08-12 17:33:00,87.3,66.0,29.87,NNW,345,1.0,6.0,49,0.00,,,0.00,weatherlink.com 1.10,2013-08-12 21:33:00,
2013-08-12 17:48:00,86.8,65.0,29.88,NNW,342,0.0,4.0,49,0.00,,,0.00,weatherlink.com 1.10,2013-08-12 21:48:00,
2013-08-12 18:03:00,86.6,66.0,29.87,NE,46,4.0,4.0,51,0.00,,,0.00,weatherlink.com 1.10,2013-08-12 22:03:00,
2013-08-12 18:18:00,85.6,67.0,29.87,ESE,114,0.0,4.0,54,0.00,,,0.00,weatherlink.com 1.10,2013-08-12 22:18:00,
2013-08-12 18:33:00,83.5,67.0,29.87,East,87,3.0,4.0,58,0.00,,,0.00,weatherlink.com 1.10,2013-08-12 22:33:00,
2013-08-12 18:48:00,82.9,68.0,29.87,SE,140,2.0,5.0,60,0.00,,,0.00,weatherlink.com 1.10,2013-08-12 22:48:00,
2013-08-12 19:03:00,82.3,69.0,29.87,East,94,1.0,3.0,64,0.00,,,0.00,weatherlink.com 1.10,2013-08-12 23:03:00,
2013-08-12 19:19:00,81.4,69.0,29.87,South,190,0.0,2.0,67,0.00,,,0.00,weatherlink.com 1.10,2013-08-12 23:19:00,
2013-08-12 19:33:00,80.8,70.0,29.87,SE,128,0.0,3.0,69,0.00,,,0.00,weatherlink.com 1.10,2013-08-12 23:33:00,
2013-08-12 19:48:00,80.2,69.0,29.87,SE,131,0.0,4.0,68,0.00,,,0.00,weatherlink.com 1.10,2013-08-12 23:48:00,
2013-08-12 20:03:00,79.3,69.0,29.87,SE,140,1.0,2.0,71,0.00,,,0.00,weatherlink.com 1.10,2013-08-13 00:03:00,
2013-08-12 20:19:00,78.3,69.0,29.87,SE,141,0.0,1.0,73,0.00,,,0.00,weatherlink.com 1.10,2013-08-13 00:19:00,
2013-08-12 20:34:00,77.3,69.0,29.87,SE,141,0.0,1.0,75,0.00,,,0.00,weatherlink.com 1.10,2013-08-13 00:34:00,
2013-08-12 20:49:00,76.4,69.0,29.87,SE,141,0.0,0.0,77,0.00,,,0.00,weatherlink.com 1.10,2013-08-13 00:49:00,
2013-08-12 21:04:00,75.9,69.0,29.87,SE,141,0.0,1.0,79,0.00,,,0.00,weatherlink.com 1.10,2013-08-13 01:04:00,
2013-08-12 21:19:00,75.7,70.0,29.87,SE,141,0.0,0.0,81,0.00,,,0.00,weatherlink.com 1.10,2013-08-13 01:19:00,
2013-08-12 21:34:00,75.5,69.0,29.87,SE,141,0.0,0.0,81,0.00,,,0.00,weatherlink.com 1.10,2013-08-13 01:34:00,
2013-08-12 21:49:00,75.2,69.0,29.88,SE,141,0.0,0.0,81,0.00,,,0.00,weatherlink.com 1.10,2013-08-13 01:49:00,
2013-08-12 22:04:00,74.9,69.0,29.88,SE,141,0.0,0.0,83,0.00,,,0.00,weatherlink.com 1.10,2013-08-13 02:04:00,
2013-08-12 22:19:00,74.5,69.0,29.87,WSW,253,0.0,2.0,84,0.00,,,0.00,weatherlink.com 1.10,2013-08-13 02:19:00,
2013-08-12 22:34:00,74.3,69.0,29.86,SE,145,0.0,3.0,84,0.00,,,0.00,weatherlink.com 1.10,2013-08-13 02:34:00,
2013-08-12 22:49:00,74.7,70.0,29.86,WNW,291,0.0,4.0,84,0.00,,,0.00,weatherlink.com 1.10,2013-08-13 02:49:00,
2013-08-12 23:04:00,74.8,70.0,29.86,SSE,154,0.0,2.0,84,0.00,,,0.00,weatherlink.com 1.10,2013-08-13 03:04:00,
2013-08-12 23:19:00,75.1,70.0,29.85,SE,131,1.0,3.0,84,0.00,,,0.00,weatherlink.com 1.10,2013-08-13 03:19:00,
2013-08-12 23:34:00,75.1,70.0,29.85,West,270,0.0,3.0,83,0.00,,,0.00,weatherlink.com 1.10,2013-08-13 03:34:00,
2013-08-12 23:49:00,75.0,70.0,29.85,West,266,0.0,2.0,84,0.00,,,0.00,weatherlink.com 1.10,2013-08-13 03:49:00,